Date,TemperatureHighF,TemperatureAvgF,TemperatureLowF,DewpointHighF,DewpointAvgF,DewpointLowF,HumidityHigh,HumidityAvg,HumidityLow,PressureMaxIn,PressureMinIn,WindSpeedMaxMPH,WindSpeedAvgMPH,GustSpeedMaxMPH,PrecipitationSumIn
2013-1-1,69,62,58,60,56,52,89,81,72,29.79,29.68,12,6,0,0.00
2013-1-2,70,63,59,60,55,48,91,77,63,29.77,29.66,14,7,0,0.00
2013-1-3,67,62,60,60,55,44,92,78,52,29.81,29.70,12,6,0,0.00
2013-1-4,70,62,57,60,56,53,93,83,66,29.85,29.72,8,5,0,0.09
2013-1-5,67,61,57,58,54,49,85,78,67,29.84,29.71,15,8,0,0.00
2013-1-6,68,63,57,59,54,45,84,73,54,29.78,29.65,19,8,0,0.00
2013-1-7,67,66,65,56,55,54,68,67,65,29.77,29.72,11,7,33,0.00
2013-1-8,68,63,59,58,52,47,81,67,58,29.72,29.61,23,10,25,0.00
2013-1-9,69,67,65,55,54,53,66,62,58,29.78,29.75,9,4,24,0.00
2013-1-10,67,62,60,59,56,54,87,80,72,29.78,29.67,19,7,33,0.00
2013-1-11,69,64,58,59,56,53,91,77,63,29.77,29.63,16,8,0,0.00
2013-1-12,70,62,58,60,56,51,92,79,67,29.76,29.67,22,7,0,0.00
2013-1-13,70,62,57,58,55,52,92,79,56,29.78,29.69,13,4,0,0.00
2013-1-14,70,62,57,59,56,52,90,81,66,29.80,29.71,14,4,0,0.00
2013-1-15,65,65,65,57,57,57,76,76,76,29.68,29.68,5,5,5,0.00
2013-1-16,70,64,57,60,53,42,88,68,50,29.76,29.66,12,4,16,0.00
2013-1-17,63,61,59,58,57,55,87,85,82,29.76,29.73,7,5,14,0.00
2013-1-21,68,65,61,57,55,52,81,70,63,29.82,29.70,15,8,30,0.00
2013-1-23,65,64,63,58,58,57,82,79,78,29.89,29.87,9,7,24,0.00
2013-1-24,71,67,63,58,56,53,81,70,63,29.91,29.77,12,7,24,0.00
2013-1-25,62,62,62,56,56,56,82,81,80,29.86,29.85,9,7,12,0.00
2013-1-29,68,64,62,59,58,57,86,82,73,29.80,29.72,13,11,24,0.00
2013-1-30,70,67,63,60,58,56,78,75,72,29.80,29.78,6,5,10,0.00
2013-1-31,60,60,60,56,56,56,86,86,86,29.70,29.70,8,5,9,0.00
2013-2-5,72,68,64,59,56,54,82,66,57,29.80,29.69,12,6,20,0.00
2013-2-6,68,68,67,54,53,53,61,59,58,29.80,29.79,11,9,16,0.00
2013-2-11,70,67,64,50,45,38,50,45,38,29.86,29.81,9,6,16,0.00
2013-2-12,70,68,66,57,55,52,73,63,58,29.82,29.76,8,5,18,0.00
2013-2-13,71,68,63,61,58,56,85,71,63,29.80,29.67,9,4,18,0.00
2013-2-14,67,65,61,60,59,58,91,82,76,29.71,29.69,6,2,10,0.00
2013-2-18,63,62,61,56,56,55,81,80,78,29.69,29.68,6,4,13,0.00
2013-2-19,67,64,62,55,53,50,69,66,61,29.80,29.77,12,8,20,0.00
2013-2-20,71,67,62,58,57,56,87,71,62,29.69,29.62,14,9,23,0.00
2013-2-22,73,70,66,60,58,56,77,67,60,29.80,29.67,12,7,21,0.00
2013-2-25,72,68,63,64,62,60,93,82,72,29.68,29.58,8,3,16,0.04
2013-2-26,75,71,65,64,62,60,86,75,69,29.73,29.62,9,4,13,0.01
2013-2-28,64,64,63,58,58,58,83,83,83,29.65,29.65,4,4,4,0.00
2013-3-1,62,61,61,59,58,58,92,90,88,29.66,29.63,6,3,21,0.05
2013-3-5,71,67,62,63,60,58,90,79,72,29.84,29.72,10,5,29,0.00
2013-3-6,69,67,65,62,61,60,87,79,75,29.84,29.75,13,10,22,0.00
2013-3-7,67,62,60,60,58,57,93,88,76,29.81,29.73,11,6,43,0.04
2013-3-8,69,63,60,62,59,57,91,86,74,29.82,29.67,15,6,43,0.01
2013-3-11,74,71,66,63,61,58,83,71,65,29.75,29.62,11,5,15,0.00
2013-3-14,63,60,58,56,54,53,85,82,78,29.74,29.72,10,7,31,0.00
2013-3-15,65,63,62,56,56,55,79,76,73,29.84,29.80,10,8,16,0.00
2013-3-18,75,74,71,61,59,57,67,60,54,29.80,29.72,9,6,24,0.00
2013-3-19,76,74,71,62,61,57,68,64,60,29.75,29.69,10,6,17,0.00
2013-3-20,76,73,68,60,56,53,63,57,49,29.75,29.67,9,5,16,0.00
2013-4-1,67,67,66,61,61,61,85,83,82,29.68,29.67,7,5,16,0.00
2013-4-2,73,68,65,62,61,60,83,77,67,29.77,29.70,13,7,19,0.00
2013-4-3,68,65,63,62,61,60,91,86,79,29.69,29.66,6,2,10,0.00
2013-4-17,74,71,66,62,61,60,81,70,64,29.72,29.64,11,6,22,0.00
2013-4-18,74,72,71,63,62,61,73,71,67,29.70,29.69,8,6,15,0.00
2013-4-19,72,68,64,63,62,60,89,79,72,29.77,29.70,7,3,15,0.00
2013-4-22,72,68,62,63,60,58,89,77,66,29.84,29.69,9,4,16,0.00
2013-4-23,75,72,68,60,58,55,76,61,53,29.80,29.67,10,5,17,0.00
2013-4-24,74,72,69,60,58,54,72,61,55,29.78,29.66,12,8,20,0.00
2013-4-25,71,69,67,58,58,57,74,67,62,29.79,29.77,13,11,28,0.00
2013-4-29,76,73,70,60,57,55,65,58,55,29.75,29.70,10,7,20,0.00
2013-4-30,71,68,65,64,63,62,92,82,76,29.68,29.63,8,3,20,0.55
2013-5-2,74,70,65,65,63,60,90,78,66,29.78,29.69,10,4,17,0.10
2013-5-3,74,68,64,64,62,60,92,82,65,29.81,29.66,9,4,12,0.01
2013-5-6,73,70,67,61,59,58,76,69,62,29.85,29.83,10,5,13,0.00
2013-5-7,73,71,65,52,47,40,60,43,31,29.85,29.76,14,7,21,0.00
2013-5-8,75,72,67,58,47,35,71,43,29,29.87,29.74,11,5,20,0.00
2013-5-9,74,72,70,59,58,57,65,62,60,29.83,29.80,5,3,15,0.00
2013-5-10,72,70,68,63,62,60,78,75,71,29.81,29.79,6,4,11,0.00
2013-5-13,64,62,61,59,58,58,90,86,82,29.73,29.72,8,4,19,0.02
2013-5-14,66,64,61,59,58,56,92,81,76,29.82,29.75,10,5,26,0.02
2013-5-15,71,64,58,59,53,48,91,70,53,29.83,29.70,16,6,32,0.00
2013-5-16,68,62,58,54,47,42,67,60,54,29.79,29.74,11,4,32,0.00
2013-5-17,70,69,62,60,59,57,88,71,66,29.79,29.75,9,6,17,0.00
2013-5-20,74,69,66,63,61,58,82,75,66,29.77,29.66,13,7,25,0.00
2013-5-21,63,62,62,62,61,60,94,94,93,29.68,29.65,1,0,2,1.65
2013-5-22,68,64,61,64,62,59,95,92,82,29.76,29.68,6,2,10,1.12
2013-5-23,69,68,67,63,62,61,84,81,78,29.78,29.77,6,3,7,0.00
2013-5-24,67,64,63,63,62,61,94,92,88,29.71,29.69,5,1,5,0.13
2013-5-27,75,69,61,63,61,56,89,75,63,29.78,29.66,10,4,15,0.16
2013-5-28,71,66,62,63,61,59,94,83,75,29.75,29.66,8,4,18,0.13
2013-5-29,71,71,70,62,61,60,74,71,69,29.75,29.74,4,4,6,0.01
2013-5-30,62,61,60,60,60,58,95,95,94,29.74,29.71,5,1,14,0.90
2013-5-31,69,68,67,62,61,60,82,78,74,29.78,29.77,4,2,8,0.01
2013-6-3,73,70,65,65,63,60,91,78,68,29.72,29.68,7,4,11,0.25
2013-6-4,69,64,63,65,62,60,94,92,85,29.69,29.64,3,0,7,1.07
2013-6-6,62,62,62,60,60,60,95,94,94,29.69,29.67,0,0,4,2.20
2013-6-7,70,70,69,60,59,59,72,70,68,29.74,29.73,8,5,11,0.00
2013-6-12,71,69,64,63,61,59,83,78,74,29.78,29.76,8,6,12,0.01
2013-6-14,73,69,67,64,62,61,86,79,72,29.73,29.65,10,3,16,0.03
2013-6-19,70,67,65,65,62,61,91,86,80,29.66,29.63,5,1,11,0.03
2013-6-20,70,67,64,63,62,60,87,82,75,29.74,29.64,8,3,13,0.01
2013-6-21,72,69,65,62,60,58,84,73,67,29.77,29.70,7,4,16,0.00
2013-6-25,70,68,68,64,62,60,85,79,74,29.79,29.75,6,3,10,0.00
2013-6-26,71,71,71,63,63,63,75,75,75,29.75,29.75,4,4,5,0.00
2013-6-27,67,65,63,62,61,60,91,87,85,29.73,29.68,6,2,17,0.01
2013-6-28,67,64,61,62,60,58,89,85,81,29.78,29.70,4,1,14,0.00
2013-7-3,71,69,66,64,62,60,85,79,73,29.83,29.71,5,1,10,0.00
2013-7-4,74,68,62,63,61,58,90,78,64,29.77,29.71,9,4,18,0.02
2013-7-5,72,70,68,61,60,59,74,70,67,29.71,29.67,9,6,15,0.00
2013-7-9,71,69,67,63,61,59,84,77,72,29.81,29.72,9,5,18,0.00
2013-7-12,68,66,63,63,62,60,92,86,77,29.80,29.72,5,2,7,0.05
2013-7-15,69,68,65,60,58,57,75,72,69,29.72,29.71,8,4,19,0.00
2013-7-26,65,65,64,59,58,58,81,80,78,29.80,29.77,13,8,25,0.00
2013-7-31,64,64,64,60,60,60,84,84,84,29.74,29.74,2,2,2,0.00
2013-8-1,70,65,62,61,59,58,87,81,72,29.81,29.72,8,4,14,0.00
2013-8-5,68,68,68,60,60,60,76,76,76,29.78,29.78,1,1,13,0.00
2013-8-6,72,68,64,61,58,56,79,70,59,29.77,29.71,9,5,27,0.00
2013-8-7,70,68,66,60,58,57,78,72,64,29.72,29.69,12,8,22,0.00
2013-8-9,70,67,65,61,60,59,85,78,71,29.75,29.69,7,3,13,0.01
2013-8-12,71,65,61,62,61,59,95,86,68,29.73,29.67,8,2,11,0.89
2013-8-13,75,66,62,64,62,59,95,86,64,29.77,29.64,8,1,21,0.02
2013-8-14,72,63,59,63,59,56,95,86,71,29.71,29.66,4,0,21,0.01
2013-8-15,70,70,70,62,62,62,77,77,77,29.70,29.70,2,2,2,0.00
2013-8-16,70,67,62,64,62,60,95,83,75,29.72,29.64,7,3,10,1.20
2013-8-19,72,66,62,63,60,58,88,80,66,29.75,29.65,8,4,19,0.09
2013-8-21,69,66,64,63,61,59,90,83,75,29.75,29.67,10,3,15,0.09
2013-8-22,70,66,61,64,61,58,93,85,76,29.70,29.60,5,1,13,0.28
2013-8-23,67,65,64,62,62,61,91,89,86,29.65,29.65,5,2,13,0.07
2013-8-26,73,69,65,64,62,59,90,80,65,29.82,29.69,10,4,13,0.00
2013-8-27,66,63,61,61,59,58,92,87,81,29.72,29.68,3,1,10,0.34
2013-8-30,71,69,67,64,61,58,88,75,70,29.80,29.67,10,4,14,0.00
2013-9-2,72,66,63,63,62,58,93,86,70,29.83,29.70,8,2,11,0.02
2013-9-3,72,68,63,64,62,57,88,78,70,29.81,29.67,9,3,18,0.06
2013-9-4,72,67,62,63,61,59,94,81,69,29.78,29.68,7,3,18,0.05
2013-9-5,71,69,67,64,62,60,89,80,72,29.78,29.69,10,4,14,0.01
2013-9-6,70,68,65,64,63,61,91,84,76,29.78,29.69,6,3,11,0.00
2013-9-9,73,70,68,62,61,60,78,72,67,29.78,29.75,4,2,11,0.00
2013-9-10,70,67,64,64,62,60,92,84,72,29.79,29.67,6,2,9,0.20
2013-9-11,63,63,62,61,60,59,91,89,88,29.71,29.70,1,1,5,0.01
2013-9-12,72,66,61,62,60,58,95,81,64,29.78,29.65,8,2,11,1.43
2013-9-13,73,69,61,66,62,59,93,79,67,29.70,29.58,10,3,15,0.31
2013-9-16,70,66,61,65,62,59,95,89,80,29.74,29.63,4,1,7,2.82
2013-9-17,73,68,64,64,62,58,94,81,60,29.75,29.62,7,2,9,0.17
2013-9-18,71,64,59,64,60,57,94,88,70,29.73,29.66,4,1,8,0.35
2013-9-19,69,64,59,64,60,56,95,88,78,29.79,29.70,5,1,10,0.02
2013-9-20,74,68,63,64,62,60,91,81,63,29.79,29.64,6,1,10,0.06
2013-9-23,71,68,65,64,62,61,88,81,74,29.79,29.70,8,2,9,0.00
2013-9-24,73,67,62,66,63,59,92,85,74,29.76,29.60,5,2,10,0.34
2013-9-25,74,65,61,62,59,55,92,82,57,29.75,29.56,14,3,28,0.02
2013-9-26,71,64,60,64,59,54,94,82,66,29.74,29.63,5,1,8,0.45
2013-9-27,68,68,67,61,60,59,81,77,73,29.78,29.77,2,1,12,0.00
2013-9-30,69,63,60,63,59,58,95,88,71,29.81,29.67,7,1,10,0.62
2013-10-1,70,63,58,63,59,55,95,89,75,29.78,29.66,6,1,7,0.30
2013-10-3,64,64,64,62,62,62,94,94,93,29.68,29.66,1,0,7,0.00
2013-10-4,66,62,59,63,59,55,94,88,75,29.79,29.69,4,1,8,0.24
2013-10-5,73,64,60,65,60,55,95,86,66,29.79,29.64,7,1,10,1.46
2013-10-6,70,63,59,63,60,56,95,90,76,29.82,29.69,6,1,10,1.85
2013-10-7,70,64,59,64,60,56,93,87,75,29.79,29.69,7,1,13,0.50
2013-10-8,70,68,67,63,62,61,83,80,76,29.79,29.77,8,6,15,0.01
2013-10-9,72,68,64,63,61,59,86,77,72,29.78,29.66,10,4,21,0.02
2013-10-10,69,66,62,62,60,58,89,81,76,29.69,29.65,7,3,11,0.03
2013-10-11,71,66,62,62,61,59,93,83,72,29.71,29.65,8,2,13,0.53
2013-10-14,69,67,66,61,59,58,77,74,71,29.75,29.72,4,3,12,0.00
2013-10-15,70,66,61,63,61,59,95,85,74,29.79,29.68,6,2,12,0.10
2013-10-16,67,66,64,61,60,57,84,81,77,29.81,29.76,4,2,10,0.02
2013-10-17,68,66,64,63,61,58,92,85,76,29.84,29.68,6,3,11,0.01
2013-10-18,72,69,67,65,62,60,85,80,72,29.79,29.69,8,3,14,0.00
2013-10-21,72,66,62,62,61,58,94,83,65,29.82,29.69,7,2,11,0.59
2013-10-22,70,67,63,62,60,58,93,79,71,29.76,29.65,8,3,10,0.51
2013-10-24,66,65,64,63,62,62,95,92,89,29.72,29.64,2,1,6,0.16
2013-10-28,71,69,67,64,63,62,88,81,75,29.77,29.65,8,4,12,0.00
2013-10-31,69,68,66,65,62,60,86,83,80,29.66,29.62,7,3,14,0.00
2013-11-1,71,67,60,64,61,57,93,83,68,29.77,29.64,8,3,10,1.06
2013-11-4,68,66,62,63,60,57,93,84,71,29.79,29.67,6,2,10,0.01
2013-11-6,68,66,64,64,62,62,93,89,84,29.72,29.67,6,2,8,0.09
2013-11-7,72,70,64,64,63,61,93,79,70,29.74,29.66,7,4,14,0.01
2013-11-11,68,65,62,62,61,59,91,85,79,29.77,29.64,8,4,17,0.02
2013-11-12,66,63,62,62,60,58,91,88,83,29.74,29.62,7,3,13,0.03
2013-11-13,65,64,63,59,58,58,86,83,77,29.63,29.60,8,2,29,0.00
2013-11-14,71,67,63,64,61,59,92,82,70,29.74,29.63,5,2,12,0.21
2013-11-15,67,67,67,62,62,62,84,84,84,29.74,29.74,2,2,5,0.00
2013-11-18,71,68,64,62,61,59,86,78,66,29.75,29.61,9,5,12,0.00
2013-11-25,63,63,63,60,60,60,91,90,90,29.70,29.69,1,1,12,0.00
2013-11-26,72,67,63,63,61,58,93,81,69,29.77,29.64,7,3,12,0.02
2013-11-28,65,61,58,58,56,54,93,85,70,29.78,29.63,22,8,33,1.20
2013-11-29,60,60,60,58,57,57,92,90,89,29.75,29.73,5,3,16,0.06
2013-12-2,64,63,62,58,58,57,85,83,82,29.70,29.68,1,1,16,0.00
2013-12-3,68,65,62,62,60,57,92,84,76,29.83,29.72,5,2,11,0.02
2013-12-4,67,67,66,60,59,59,79,77,76,29.75,29.72,9,6,17,0.00
2013-12-6,70,68,66,62,60,59,80,76,70,29.77,29.67,9,6,13,0.00
2013-12-9,68,66,64,58,56,54,73,70,67,29.83,29.77,14,6,22,0.00
2013-12-11,71,68,64,60,59,56,84,72,62,29.81,29.66,9,5,17,0.00
2013-12-12,63,62,62,59,59,58,90,89,86,29.70,29.67,9,5,18,0.00
2013-12-16,70,67,63,62,60,59,88,79,71,29.77,29.66,7,3,17,0.00
2013-12-17,68,64,62,60,59,57,89,82,68,29.81,29.72,11,5,25,0.00
2013-12-18,60,59,59,55,52,49,88,77,68,29.76,29.74,5,3,15,0.00
2013-12-19,66,63,60,59,57,56,88,82,75,29.80,29.68,9,5,20,0.00
2013-12-20,65,63,61,58,57,55,81,79,76,29.79,29.77,8,4,16,0.00